createdAt,value
2019-04-04T00:00:48.090Z,31.17
2019-04-04T00:03:21.036Z,31.07
2019-04-04T00:05:52.233Z,30.00
2019-04-04T00:08:23.347Z,29.83
2019-04-04T00:10:54.678Z,30.40
2019-04-04T00:13:25.632Z,29.17
2019-04-04T00:15:57.091Z,30.33
2019-04-04T00:18:28.385Z,30.03
2019-04-04T00:21:02.532Z,31.57
2019-04-04T00:23:32.671Z,30.80
2019-04-04T00:26:03.830Z,30.03
2019-04-04T00:28:35.788Z,30.97
2019-04-04T00:31:06.965Z,27.63
2019-04-04T00:33:38.054Z,29.47
2019-04-04T00:36:10.123Z,31.37
2019-04-04T00:38:41.383Z,29.77
2019-04-04T00:41:12.950Z,31.50
2019-04-04T00:43:44.855Z,29.93
2019-04-04T00:46:16.389Z,31.83
2019-04-04T00:48:47.556Z,31.00
2019-04-04T00:51:18.848Z,31.30
2019-04-04T00:53:49.962Z,30.57
2019-04-04T00:56:21.675Z,29.23
2019-04-04T00:58:52.842Z,31.13
2019-04-04T01:01:26.969Z,30.70
2019-04-04T01:04:00.260Z,31.00
2019-04-04T01:06:33.473Z,30.73
2019-04-04T01:09:04.735Z,30.80
2019-04-04T01:11:36.113Z,31.63
2019-04-04T01:14:07.267Z,31.17
2019-04-04T01:16:38.791Z,28.97
2019-04-04T01:19:10.461Z,31.03
2019-04-04T01:21:42.315Z,31.47
2019-04-04T01:24:13.909Z,30.20
2019-04-04T01:26:45.509Z,32.00
2019-04-04T01:29:16.664Z,31.00
2019-04-04T01:31:48.354Z,31.60
2019-04-04T01:34:20.905Z,28.80
2019-04-04T01:36:56.013Z,28.53
2019-04-04T01:39:25.956Z,31.77
2019-04-04T01:41:57.103Z,30.50
2019-04-04T01:44:28.949Z,32.93
2019-04-04T01:47:00.593Z,30.03
2019-04-04T01:49:31.853Z,30.33
2019-04-04T01:52:03.422Z,30.17
2019-04-04T01:54:35.247Z,31.30
2019-04-04T01:57:08.129Z,29.73
2019-04-04T01:59:41.958Z,30.83
2019-04-04T02:02:13.774Z,31.33
2019-04-04T02:04:45.507Z,31.33
2019-04-04T02:07:17.307Z,32.83
2019-04-04T02:09:48.763Z,33.50
2019-04-04T02:12:20.708Z,33.63
2019-04-04T02:14:52.495Z,32.53
2019-04-04T02:17:24.954Z,30.30
2019-04-04T02:19:57.004Z,31.27
2019-04-04T02:22:30.743Z,31.77
2019-04-04T02:25:03.149Z,29.87
2019-04-04T02:27:37.929Z,32.60
2019-04-04T02:30:14.578Z,30.60
2019-04-04T02:32:44.547Z,31.23
2019-04-04T02:35:16.212Z,30.67
2019-04-04T02:37:48.020Z,31.27
2019-04-04T02:40:19.606Z,31.43
2019-04-04T02:42:54.087Z,31.57
2019-04-04T02:45:26.172Z,30.80
2019-04-04T02:47:57.634Z,32.40
2019-04-04T02:50:34.387Z,30.87
2019-04-04T02:53:04.052Z,30.97
2019-04-04T02:55:36.094Z,32.27
2019-04-04T02:58:07.727Z,32.53
2019-04-04T03:00:40.017Z,30.47
2019-04-04T03:03:11.138Z,32.67
2019-04-04T03:05:43.467Z,32.37
2019-04-04T03:08:15.486Z,32.90
2019-04-04T03:10:49.229Z,31.23
2019-04-04T03:13:20.563Z,31.17
2019-04-04T03:15:52.272Z,31.20
2019-04-04T03:18:24.856Z,29.87
2019-04-04T03:20:56.603Z,33.80
2019-04-04T03:23:32.990Z,29.47
2019-04-04T03:26:01.589Z,32.40
2019-04-04T03:28:33.986Z,33.10
2019-04-04T03:31:05.507Z,32.70
2019-04-04T03:33:37.539Z,29.53
2019-04-04T03:36:11.704Z,32.27
2019-04-04T03:38:46.151Z,28.93
2019-04-04T03:41:15.925Z,29.80
2019-04-04T03:43:48.879Z,28.63
2019-04-04T03:46:20.767Z,30.30
2019-04-04T03:48:51.946Z,30.90
2019-04-04T03:51:23.383Z,28.27
2019-04-04T03:53:57.970Z,29.57
2019-04-04T03:56:33.237Z,29.07
2019-04-04T03:59:02.674Z,29.23
2019-04-04T04:01:35.751Z,28.27
2019-04-04T04:04:06.924Z,29.80
2019-04-04T04:06:41.347Z,32.27
2019-04-04T04:09:11.681Z,26.77
2019-04-04T04:11:42.601Z,29.30
2019-04-04T04:14:14.044Z,29.03
2019-04-04T04:16:45.239Z,30.33
2019-04-04T04:19:16.651Z,30.20
2019-04-04T04:21:47.483Z,29.63
2019-04-04T04:24:18.547Z,29.60
2019-04-04T04:26:49.711Z,29.73
2019-04-04T04:29:21.010Z,28.83
2019-04-04T04:31:53.153Z,30.27
2019-04-04T04:34:24.089Z,28.67
2019-04-04T04:36:55.167Z,28.33
2019-04-04T04:39:26.256Z,27.83
2019-04-04T04:41:57.826Z,28.13
2019-04-04T04:44:29.310Z,26.03
2019-04-04T04:47:00.850Z,27.00
2019-04-04T04:49:35.337Z,28.37
2019-04-04T04:52:05.322Z,26.20
2019-04-04T04:54:36.272Z,25.63
2019-04-04T04:57:08.207Z,27.37
2019-04-04T04:59:40.225Z,26.77
2019-04-04T05:02:11.402Z,26.93
2019-04-04T05:04:44.107Z,26.37
2019-04-04T05:07:15.535Z,27.97
2019-04-04T05:09:47.405Z,26.50
2019-04-04T05:12:21.731Z,27.77
2019-04-04T05:14:51.689Z,27.87
2019-04-04T05:17:23.883Z,27.67
2019-04-04T05:19:55.563Z,26.53
2019-04-04T05:22:26.605Z,24.37
2019-04-04T05:25:07.929Z,27.50
2019-04-04T05:27:32.601Z,27.97
2019-04-04T05:30:08.133Z,24.33
2019-04-04T05:32:38.206Z,25.40
2019-04-04T05:35:09.645Z,24.07
2019-04-04T05:37:41.315Z,26.53
2019-04-04T05:40:13.162Z,26.23
2019-04-04T05:42:44.920Z,27.30
2019-04-04T05:45:16.693Z,26.17
2019-04-04T05:47:47.904Z,27.43
2019-04-04T05:50:20.562Z,28.73
2019-04-04T05:52:52.429Z,26.33
2019-04-04T05:55:23.568Z,26.57
2019-04-04T05:57:56.182Z,26.60
2019-04-04T06:00:28.321Z,25.70
2019-04-04T06:03:00.165Z,25.63
2019-04-04T06:05:31.934Z,23.73
2019-04-04T06:08:07.672Z,26.80
2019-04-04T06:10:37.472Z,28.30
2019-04-04T06:13:09.891Z,26.37
2019-04-04T06:15:42.130Z,25.13
2019-04-04T06:18:13.983Z,24.13
2019-04-04T06:20:48.311Z,23.33
2019-04-04T06:23:20.519Z,25.47
2019-04-04T06:25:52.454Z,25.70
2019-04-04T06:28:24.118Z,25.40
2019-04-04T06:30:55.870Z,24.13
2019-04-04T06:33:28.668Z,22.77
2019-04-04T06:36:00.179Z,25.73
2019-04-04T06:38:32.656Z,26.23
2019-04-04T06:41:04.160Z,25.43
2019-04-04T06:43:36.751Z,25.47
2019-04-04T06:46:09.007Z,25.13
2019-04-04T06:48:40.830Z,26.13
2019-04-04T06:51:14.063Z,24.73
2019-04-04T06:53:46.850Z,26.37
2019-04-04T06:56:17.884Z,23.27
2019-04-04T06:58:49.245Z,24.50
2019-04-04T07:01:21.865Z,24.07
2019-04-04T07:03:53.056Z,25.17
2019-04-04T07:06:24.340Z,23.23
2019-04-04T07:08:55.289Z,25.00
2019-04-04T07:11:26.875Z,24.73
2019-04-04T07:13:59.081Z,23.50
2019-04-04T07:16:30.757Z,23.73
2019-04-04T07:19:02.413Z,25.50
2019-04-04T07:21:34.365Z,23.13
2019-04-04T07:24:05.151Z,21.63
2019-04-04T07:26:43.251Z,25.93
2019-04-04T07:29:15.054Z,24.13
2019-04-04T07:31:46.606Z,25.87
2019-04-04T07:34:18.826Z,23.67
2019-04-04T07:36:51.195Z,23.13
2019-04-04T07:39:22.760Z,22.03
2019-04-04T07:41:53.671Z,22.60
2019-04-04T07:44:25.556Z,21.07
2019-04-04T07:46:57.916Z,21.27
2019-04-04T07:49:30.204Z,23.30
2019-04-04T07:52:03.500Z,21.93
2019-04-04T07:54:38.502Z,20.33
2019-04-04T07:57:09.304Z,22.00
2019-04-04T07:59:41.110Z,22.50
2019-04-04T08:02:14.772Z,24.03
2019-04-04T08:04:59.390Z,23.33
2019-04-04T08:07:34.124Z,22.20
2019-04-04T08:10:06.494Z,25.33
2019-04-04T08:12:38.756Z,22.07
2019-04-04T08:15:10.112Z,22.93
2019-04-04T08:17:42.283Z,21.93
2019-04-04T08:20:13.937Z,21.67
2019-04-04T08:22:45.683Z,21.17
2019-04-04T08:25:17.274Z,23.30
2019-04-04T08:27:49.942Z,21.40
2019-04-04T08:30:22.118Z,23.50
2019-04-04T08:32:56.420Z,22.40
2019-04-04T08:35:29.272Z,22.30
2019-04-04T08:37:59.938Z,21.63
2019-04-04T08:40:31.840Z,22.47
2019-04-04T08:43:03.218Z,25.80
2019-04-04T08:45:36.458Z,22.50
2019-04-04T08:48:07.991Z,23.37
2019-04-04T08:50:39.317Z,23.13
2019-04-04T08:53:10.331Z,21.07
2019-04-04T08:55:42.052Z,21.80
2019-04-04T08:58:13.571Z,21.80
2019-04-04T09:00:45.313Z,22.17
2019-04-04T09:03:17.387Z,23.00
2019-04-04T09:05:50.890Z,21.17
2019-04-04T09:08:22.164Z,23.33
2019-04-04T09:10:54.341Z,21.00
2019-04-04T09:13:26.147Z,23.43
2019-04-04T09:15:57.854Z,23.10
2019-04-04T09:18:29.384Z,20.53
2019-04-04T09:21:00.697Z,23.60
2019-04-04T09:23:32.270Z,21.60
2019-04-04T09:26:05.881Z,20.90
2019-04-04T09:28:36.880Z,20.87
2019-04-04T09:31:08.563Z,22.33
2019-04-04T09:33:40.470Z,21.23
2019-04-04T09:36:11.614Z,23.43
2019-04-04T09:38:44.411Z,22.33
2019-04-04T09:41:16.003Z,23.00
2019-04-04T09:43:47.861Z,19.77
2019-04-04T09:46:19.895Z,20.93
2019-04-04T09:48:51.774Z,19.77
2019-04-04T09:51:23.526Z,21.80
2019-04-04T09:53:56.246Z,20.00
2019-04-04T09:56:28.803Z,20.80
2019-04-04T09:59:00.910Z,20.00
2019-04-04T10:01:32.605Z,19.13
2019-04-04T10:04:04.286Z,20.30
2019-04-04T10:06:35.583Z,21.80
2019-04-04T10:09:15.492Z,20.47
2019-04-04T10:11:44.077Z,19.53
2019-04-04T10:14:16.150Z,19.90
2019-04-04T10:16:48.286Z,20.87
2019-04-04T10:19:20.351Z,21.37
2019-04-04T10:21:52.833Z,17.33
2019-04-04T10:24:24.517Z,17.97
2019-04-04T10:26:56.408Z,18.20
2019-04-04T10:29:28.005Z,17.27
2019-04-04T10:32:00.362Z,19.37
2019-04-04T10:34:32.586Z,21.73
2019-04-04T10:37:04.556Z,18.80
2019-04-04T10:39:37.352Z,18.57
2019-04-04T10:42:08.806Z,17.97
2019-04-04T10:44:40.966Z,19.27
2019-04-04T10:47:13.355Z,18.63
2019-04-04T10:49:46.115Z,17.83
2019-04-04T10:52:17.765Z,15.97
2019-04-04T10:54:49.631Z,17.97
2019-04-04T10:57:21.105Z,17.33
2019-04-04T10:59:54.718Z,16.63
2019-04-04T11:02:26.189Z,17.73
2019-04-04T11:04:57.676Z,17.23
2019-04-04T11:07:29.941Z,16.10
2019-04-04T11:10:01.976Z,16.40
2019-04-04T11:12:34.453Z,17.73
2019-04-04T11:15:06.935Z,15.90
2019-04-04T11:17:38.502Z,15.57
2019-04-04T11:20:09.840Z,16.20
2019-04-04T11:22:41.032Z,17.20
2019-04-04T11:25:13.615Z,18.53
2019-04-04T11:27:45.512Z,16.77
2019-04-04T11:30:17.319Z,17.50
2019-04-04T11:32:49.097Z,17.53
2019-04-04T11:35:20.885Z,17.23
2019-04-04T11:37:52.647Z,18.37
2019-04-04T11:40:24.197Z,17.93
2019-04-04T11:42:56.457Z,19.40
2019-04-04T11:45:28.013Z,18.77
2019-04-04T11:48:00.191Z,20.87
2019-04-04T11:50:33.002Z,17.47
2019-04-04T11:53:04.904Z,18.03
2019-04-04T11:55:37.131Z,17.00
2019-04-04T11:58:09.048Z,17.07
2019-04-04T12:00:42.282Z,18.30
2019-04-04T12:03:13.872Z,16.03
2019-04-04T12:05:45.118Z,16.57
2019-04-04T12:08:16.034Z,17.27
2019-04-04T12:10:47.081Z,17.47
2019-04-04T12:13:18.945Z,15.30
2019-04-04T12:15:50.528Z,15.77
2019-04-04T12:18:22.358Z,14.70
2019-04-04T12:20:56.449Z,15.93
2019-04-04T12:23:28.174Z,14.10
2019-04-04T12:26:00.035Z,15.53
2019-04-04T12:28:31.899Z,17.33
2019-04-04T12:31:03.865Z,17.40
2019-04-04T12:33:37.831Z,14.97
2019-04-04T12:36:09.390Z,15.63
2019-04-04T12:38:40.320Z,16.27
2019-04-04T12:41:11.393Z,15.73
2019-04-04T12:43:42.937Z,17.23
2019-04-04T12:46:14.722Z,17.00
2019-04-04T12:48:46.055Z,17.13
2019-04-04T12:51:18.472Z,17.53
2019-04-04T12:53:50.005Z,16.73
2019-04-04T12:56:21.435Z,16.80
2019-04-04T12:58:53.258Z,18.10
2019-04-04T13:01:24.796Z,19.37
2019-04-04T13:03:56.817Z,18.30
2019-04-04T13:06:28.534Z,16.63
2019-04-04T13:09:00.261Z,17.07
2019-04-04T13:11:31.621Z,18.80
2019-04-04T13:14:03.227Z,18.03
2019-04-04T13:16:34.679Z,17.60
2019-04-04T13:19:06.086Z,17.77
2019-04-04T13:21:37.780Z,17.27
2019-04-04T13:24:09.390Z,18.47
2019-04-04T13:26:41.158Z,18.90
2019-04-04T13:29:12.949Z,19.30
2019-04-04T13:31:44.634Z,19.10
2019-04-04T13:34:17.133Z,17.93
2019-04-04T13:36:49.550Z,18.83
2019-04-04T13:39:22.296Z,18.33
2019-04-04T13:41:53.645Z,17.93
2019-04-04T13:44:27.878Z,18.17
2019-04-04T13:47:02.720Z,18.47
2019-04-04T13:49:34.541Z,19.07
2019-04-04T13:52:06.354Z,18.53
2019-04-04T13:54:41.022Z,17.50
2019-04-04T13:57:12.286Z,18.70
2019-04-04T13:59:43.507Z,19.00
2019-04-04T14:02:14.857Z,18.13
2019-04-04T14:04:46.162Z,18.43
2019-04-04T14:07:17.538Z,17.93
2019-04-04T14:09:49.019Z,19.07
2019-04-04T14:12:20.427Z,19.27
2019-04-04T14:14:52.050Z,17.00
2019-04-04T14:17:25.418Z,17.40
2019-04-04T14:19:56.597Z,18.13
2019-04-04T14:22:28.610Z,17.93
2019-04-04T14:25:02.799Z,18.40
2019-04-04T14:27:34.797Z,17.83
2019-04-04T14:30:09.364Z,17.60
2019-04-04T14:32:41.084Z,18.27
2019-04-04T14:35:12.846Z,18.13
2019-04-04T14:37:43.675Z,17.60
2019-04-04T14:40:14.820Z,16.67
2019-04-04T14:42:46.525Z,18.27
2019-04-04T14:45:23.238Z,16.47
2019-04-04T14:47:56.593Z,17.30
2019-04-04T14:50:28.301Z,17.30
2019-04-04T14:53:00.932Z,17.73
2019-04-04T14:55:33.183Z,16.97
2019-04-04T14:58:05.389Z,17.27
2019-04-04T15:00:36.706Z,17.23
2019-04-04T15:03:08.669Z,16.17
2019-04-04T15:05:39.748Z,16.80
2019-04-04T15:08:12.165Z,17.70
2019-04-04T15:10:45.261Z,16.20
2019-04-04T15:13:16.922Z,17.63
2019-04-04T15:16:15.705Z,19.40
2019-04-04T15:18:47.552Z,18.23
2019-04-04T15:21:20.138Z,17.90
2019-04-04T15:23:52.591Z,16.80
2019-04-04T15:26:25.694Z,17.50
2019-04-04T15:28:57.842Z,18.20
2019-04-04T15:31:30.112Z,18.87
2019-04-04T15:34:02.404Z,19.13
2019-04-04T15:36:34.152Z,17.50
2019-04-04T15:39:07.050Z,17.23
2019-04-04T15:41:38.962Z,16.40
2019-04-04T15:44:10.878Z,16.87
2019-04-04T15:46:43.611Z,18.43
2019-04-04T15:49:16.087Z,17.57
2019-04-04T15:51:48.505Z,17.17
2019-04-04T15:54:20.321Z,18.27
2019-04-04T15:56:52.827Z,18.77
2019-04-04T15:59:27.364Z,18.63
2019-04-04T16:01:59.718Z,18.93
2019-04-04T16:04:32.722Z,17.50
2019-04-04T16:07:05.966Z,17.10
2019-04-04T16:09:39.875Z,19.17
2019-04-04T16:12:13.194Z,20.37
2019-04-04T16:14:46.776Z,19.77
2019-04-04T16:17:19.130Z,19.07
2019-04-04T16:19:51.631Z,20.43
2019-04-04T16:22:24.356Z,19.23
2019-04-04T16:24:57.680Z,20.10
2019-04-04T16:27:29.794Z,18.80
2019-04-04T16:30:02.333Z,21.50
2019-04-04T16:32:34.690Z,18.73
2019-04-04T16:35:06.785Z,18.40
2019-04-04T16:37:38.284Z,17.97
2019-04-04T16:40:11.395Z,20.23
2019-04-04T16:42:43.895Z,19.33
2019-04-04T16:45:15.597Z,18.83
2019-04-04T16:47:47.569Z,19.37
2019-04-04T16:50:19.336Z,19.80
2019-04-04T16:52:51.386Z,19.73
2019-04-04T16:55:23.726Z,19.50
2019-04-04T16:57:55.349Z,19.90
2019-04-04T17:00:27.600Z,18.40
2019-04-04T17:02:59.924Z,19.90
2019-04-04T17:05:31.753Z,19.63
2019-04-04T17:08:04.649Z,19.57
2019-04-04T17:10:37.531Z,19.90
2019-04-04T17:13:10.314Z,19.70
2019-04-04T17:15:44.046Z,20.43
2019-04-04T17:18:16.724Z,19.83
2019-04-04T17:20:49.095Z,19.33
2019-04-04T17:23:22.841Z,21.33
2019-04-04T17:25:56.005Z,22.43
2019-04-04T17:28:28.638Z,21.53
2019-04-04T17:31:02.267Z,21.33
2019-04-04T17:33:34.806Z,21.43
2019-04-04T17:36:07.705Z,22.83
2019-04-04T17:38:40.271Z,21.90
2019-04-04T17:41:12.601Z,21.60
2019-04-04T17:43:46.197Z,22.87
2019-04-04T17:46:19.630Z,21.03
2019-04-04T17:48:52.802Z,21.67
2019-04-04T17:51:25.073Z,22.53
2019-04-04T17:54:05.369Z,19.83
2019-04-04T17:56:37.750Z,21.17
2019-04-04T17:59:09.856Z,21.50
2019-04-04T18:01:41.821Z,21.90
2019-04-04T18:04:14.315Z,20.97
2019-04-04T18:06:49.039Z,19.30
2019-04-04T18:09:31.657Z,19.90
2019-04-04T18:11:59.281Z,20.57
2019-04-04T18:14:33.414Z,20.03
2019-04-04T18:17:06.212Z,20.63
2019-04-04T18:19:40.985Z,24.23
2019-04-04T18:22:13.475Z,22.23
2019-04-04T18:24:47.386Z,23.73
2019-04-04T18:27:21.167Z,21.57
2019-04-04T18:29:54.068Z,22.20
2019-04-04T18:32:37.865Z,22.83
2019-04-04T18:35:10.971Z,23.70
2019-04-04T18:37:55.648Z,23.33
2019-04-04T18:40:28.508Z,22.03
2019-04-04T18:43:01.196Z,21.33
2019-04-04T18:45:36.265Z,22.10
2019-04-04T18:48:09.706Z,22.93
2019-04-04T18:50:43.588Z,23.63
2019-04-04T18:53:15.721Z,21.17
2019-04-04T18:55:48.108Z,23.17
2019-04-04T18:58:22.905Z,22.37
2019-04-04T19:01:11.828Z,22.67
2019-04-04T19:03:44.442Z,22.63
2019-04-04T19:06:17.306Z,24.63
2019-04-04T19:08:50.828Z,23.27
2019-04-04T19:11:26.123Z,24.10
2019-04-04T19:14:05.676Z,23.03
2019-04-04T19:16:39.387Z,22.80
2019-04-04T19:19:13.124Z,23.67
2019-04-04T19:21:45.323Z,25.20
2019-04-04T19:24:18.113Z,24.70
2019-04-04T19:26:51.717Z,24.30
2019-04-04T19:29:23.912Z,25.20
2019-04-04T19:31:55.679Z,24.50
2019-04-04T19:34:28.349Z,23.60
2019-04-04T19:37:02.056Z,23.13
2019-04-04T19:39:36.241Z,24.73
2019-04-04T19:42:07.988Z,24.47
2019-04-04T19:44:52.385Z,25.47
2019-04-04T19:47:14.411Z,25.23
2019-04-04T19:49:46.799Z,25.30
2019-04-04T19:52:19.243Z,25.13
2019-04-04T19:54:52.106Z,24.97
2019-04-04T19:57:24.614Z,24.50
2019-04-04T19:59:57.186Z,25.77
2019-04-04T20:02:30.026Z,24.73
2019-04-04T20:05:02.963Z,23.33
2019-04-04T20:07:35.546Z,23.70
2019-04-04T20:10:10.111Z,24.60
2019-04-04T20:12:42.105Z,23.57
2019-04-04T20:15:15.748Z,22.17
2019-04-04T20:17:49.861Z,23.43
2019-04-04T20:20:22.483Z,22.23
2019-04-04T20:22:54.170Z,22.67
2019-04-04T20:25:27.067Z,24.83
2019-04-04T20:28:00.053Z,21.93
2019-04-04T20:30:45.305Z,21.53
2019-04-04T20:33:17.529Z,23.40
2019-04-04T20:35:54.703Z,22.50
2019-04-04T20:38:31.655Z,21.80
2019-04-04T20:41:04.365Z,24.30
2019-04-04T20:43:43.135Z,26.87
2019-04-04T20:46:09.865Z,26.83
2019-04-04T20:48:42.911Z,23.10
2019-04-04T20:51:15.682Z,23.27
2019-04-04T20:53:48.345Z,23.20
2019-04-04T20:56:20.961Z,24.30
2019-04-04T20:59:10.243Z,23.67
2019-04-04T21:01:56.461Z,23.17
2019-04-04T21:04:28.183Z,22.97
2019-04-04T21:06:59.310Z,23.67
2019-04-04T21:09:31.193Z,24.60
2019-04-04T21:12:03.905Z,24.87
2019-04-04T21:15:02.347Z,24.77
2019-04-04T21:17:34.948Z,24.70
2019-04-04T21:20:11.983Z,24.30
2019-04-04T21:22:44.195Z,24.77
2019-04-04T21:25:15.961Z,23.63
2019-04-04T21:27:54.616Z,25.90
2019-04-04T21:30:26.124Z,24.00
2019-04-04T21:32:58.693Z,24.13
2019-04-04T21:35:29.442Z,24.17
2019-04-04T21:38:00.385Z,25.07
2019-04-04T21:40:33.550Z,25.40
2019-04-04T21:43:04.385Z,25.13
2019-04-04T21:45:35.825Z,26.63
2019-04-04T21:48:08.028Z,26.57
2019-04-04T21:50:39.267Z,26.07
2019-04-04T21:53:10.484Z,26.43
2019-04-04T21:55:43.706Z,25.20
2019-04-04T21:58:15.226Z,28.23
2019-04-04T22:00:47.218Z,25.80
2019-04-04T22:03:18.491Z,24.97
2019-04-04T22:05:50.279Z,25.60
2019-04-04T22:08:22.833Z,26.97
2019-04-04T22:10:55.153Z,26.80
2019-04-04T22:13:26.924Z,25.27
2019-04-04T22:15:58.922Z,26.87
2019-04-04T22:18:30.546Z,25.50
2019-04-04T22:21:01.726Z,27.43
2019-04-04T22:23:33.190Z,27.00
2019-04-04T22:26:04.349Z,27.30
2019-04-04T22:28:35.907Z,27.40
2019-04-04T22:31:07.309Z,25.97
2019-04-04T22:33:38.316Z,25.87
2019-04-04T22:36:10.445Z,27.40
2019-04-04T22:38:42.320Z,29.37
2019-04-04T22:41:14.019Z,28.07
2019-04-04T22:43:46.745Z,27.10
2019-04-04T22:46:20.782Z,28.47
2019-04-04T22:48:54.823Z,26.97
2019-04-04T22:51:28.025Z,26.93
2019-04-04T22:54:02.452Z,27.63
2019-04-04T22:56:36.572Z,28.90
2019-04-04T22:59:09.847Z,27.97
2019-04-04T23:01:44.243Z,28.30
2019-04-04T23:04:18.026Z,26.63
2019-04-04T23:06:50.768Z,27.57
2019-04-04T23:09:24.282Z,29.20
2019-04-04T23:11:57.820Z,29.40
2019-04-04T23:14:31.793Z,28.47
2019-04-04T23:17:04.735Z,29.30
2019-04-04T23:19:38.378Z,29.37
2019-04-04T23:22:11.814Z,27.90
2019-04-04T23:24:45.283Z,28.43
2019-04-04T23:27:19.249Z,28.33
2019-04-04T23:29:52.730Z,28.83
2019-04-04T23:32:29.326Z,27.90
2019-04-04T23:35:02.409Z,27.00
2019-04-04T23:37:36.243Z,30.10
2019-04-04T23:40:10.054Z,28.17
2019-04-04T23:42:43.311Z,28.07
2019-04-04T23:45:15.873Z,29.43
2019-04-04T23:47:50.676Z,27.80
2019-04-04T23:50:24.183Z,28.67
2019-04-04T23:52:58.130Z,29.17
2019-04-04T23:55:31.580Z,28.37
2019-04-04T23:58:04.663Z,29.80
